sensor_id;sensor_type;location;lat;lon;timestamp;P1;durP1;ratioP1;P2;durP2;ratioP2
11582;SDS011;34299;50.820;4.548;2022-07-06T00:00:58;2.70;;;2.23;;
11582;SDS011;34299;50.820;4.548;2022-07-06T00:03:26;6.10;;;2.20;;
11582;SDS011;34299;50.820;4.548;2022-07-06T00:05:54;3.40;;;2.10;;
11582;SDS011;34299;50.820;4.548;2022-07-06T00:08:21;3.20;;;2.33;;
11582;SDS011;34299;50.820;4.548;2022-07-06T00:10:48;3.27;;;1.87;;
11582;SDS011;34299;50.820;4.548;2022-07-06T00:13:15;2.37;;;1.47;;
11582;SDS011;34299;50.820;4.548;2022-07-06T00:15:42;3.13;;;1.80;;
11582;SDS011;34299;50.820;4.548;2022-07-06T00:18:10;1.93;;;1.73;;
11582;SDS011;34299;50.820;4.548;2022-07-06T00:20:38;4.03;;;1.97;;
11582;SDS011;34299;50.820;4.548;2022-07-06T00:23:05;3.10;;;2.10;;
11582;SDS011;34299;50.820;4.548;2022-07-06T00:25:33;4.83;;;2.00;;
11582;SDS011;34299;50.820;4.548;2022-07-06T00:28:00;2.97;;;1.77;;
11582;SDS011;34299;50.820;4.548;2022-07-06T00:30:27;4.00;;;2.30;;
11582;SDS011;34299;50.820;4.548;2022-07-06T00:32:54;4.93;;;2.00;;
11582;SDS011;34299;50.820;4.548;2022-07-06T00:35:23;2.90;;;1.87;;
11582;SDS011;34299;50.820;4.548;2022-07-06T00:37:52;1.83;;;1.60;;
11582;SDS011;34299;50.820;4.548;2022-07-06T00:40:19;1.63;;;1.53;;
11582;SDS011;34299;50.820;4.548;2022-07-06T00:42:47;1.90;;;1.63;;
11582;SDS011;34299;50.820;4.548;2022-07-06T00:45:15;2.77;;;1.90;;
11582;SDS011;34299;50.820;4.548;2022-07-06T00:47:42;2.67;;;1.77;;
11582;SDS011;34299;50.820;4.548;2022-07-06T00:50:11;3.03;;;1.60;;
11582;SDS011;34299;50.820;4.548;2022-07-06T00:52:43;1.77;;;1.60;;
11582;SDS011;34299;50.820;4.548;2022-07-06T00:55:12;2.77;;;1.53;;
11582;SDS011;34299;50.820;4.548;2022-07-06T00:57:40;5.17;;;1.80;;
11582;SDS011;34299;50.820;4.548;2022-07-06T01:00:09;2.80;;;1.37;;
11582;SDS011;34299;50.820;4.548;2022-07-06T01:02:37;2.67;;;2.03;;
11582;SDS011;34299;50.820;4.548;2022-07-06T01:05:04;1.53;;;1.40;;
11582;SDS011;34299;50.820;4.548;2022-07-06T01:07:32;1.87;;;1.57;;
11582;SDS011;34299;50.820;4.548;2022-07-06T01:10:00;1.93;;;1.70;;
11582;SDS011;34299;50.820;4.548;2022-07-06T01:12:29;2.17;;;1.93;;
11582;SDS011;34299;50.820;4.548;2022-07-06T01:14:57;2.67;;;1.77;;
11582;SDS011;34299;50.820;4.548;2022-07-06T01:17:24;2.10;;;1.67;;
11582;SDS011;34299;50.820;4.548;2022-07-06T01:19:52;2.67;;;1.67;;
11582;SDS011;34299;50.820;4.548;2022-07-06T01:22:20;1.90;;;1.70;;
11582;SDS011;34299;50.820;4.548;2022-07-06T01:24:47;2.50;;;1.70;;
11582;SDS011;34299;50.820;4.548;2022-07-06T01:27:15;2.50;;;1.57;;
11582;SDS011;34299;50.820;4.548;2022-07-06T01:29:42;1.93;;;1.67;;
11582;SDS011;34299;50.820;4.548;2022-07-06T01:32:09;1.70;;;1.60;;
11582;SDS011;34299;50.820;4.548;2022-07-06T01:34:36;2.77;;;1.60;;
11582;SDS011;34299;50.820;4.548;2022-07-06T01:37:03;3.30;;;2.00;;
11582;SDS011;34299;50.820;4.548;2022-07-06T01:39:32;2.80;;;1.37;;
11582;SDS011;34299;50.820;4.548;2022-07-06T01:41:59;2.13;;;1.90;;
11582;SDS011;34299;50.820;4.548;2022-07-06T01:44:26;2.73;;;1.60;;
11582;SDS011;34299;50.820;4.548;2022-07-06T01:46:53;1.83;;;1.40;;
11582;SDS011;34299;50.820;4.548;2022-07-06T01:49:20;1.43;;;1.33;;
11582;SDS011;34299;50.820;4.548;2022-07-06T01:51:48;1.70;;;1.60;;
11582;SDS011;34299;50.820;4.548;2022-07-06T01:54:15;1.77;;;1.40;;
11582;SDS011;34299;50.820;4.548;2022-07-06T01:56:43;2.80;;;1.77;;
11582;SDS011;34299;50.820;4.548;2022-07-06T01:59:10;2.53;;;1.80;;
11582;SDS011;34299;50.820;4.548;2022-07-06T02:01:38;2.47;;;1.57;;
11582;SDS011;34299;50.820;4.548;2022-07-06T02:04:05;2.43;;;1.70;;
11582;SDS011;34299;50.820;4.548;2022-07-06T02:06:32;3.30;;;1.73;;
11582;SDS011;34299;50.820;4.548;2022-07-06T02:08:59;4.20;;;1.80;;
11582;SDS011;34299;50.820;4.548;2022-07-06T02:11:26;1.77;;;1.63;;
11582;SDS011;34299;50.820;4.548;2022-07-06T02:13:55;1.83;;;1.63;;
11582;SDS011;34299;50.820;4.548;2022-07-06T02:16:22;2.23;;;1.43;;
11582;SDS011;34299;50.820;4.548;2022-07-06T02:18:49;3.60;;;1.83;;
11582;SDS011;34299;50.820;4.548;2022-07-06T02:21:17;3.33;;;1.80;;
11582;SDS011;34299;50.820;4.548;2022-07-06T02:23:44;2.23;;;1.93;;
11582;SDS011;34299;50.820;4.548;2022-07-06T02:26:11;2.50;;;2.20;;
11582;SDS011;34299;50.820;4.548;2022-07-06T02:28:38;3.10;;;1.50;;
11582;SDS011;34299;50.820;4.548;2022-07-06T02:31:07;1.63;;;1.53;;
11582;SDS011;34299;50.820;4.548;2022-07-06T02:33:34;2.93;;;1.90;;
11582;SDS011;34299;50.820;4.548;2022-07-06T02:36:01;2.60;;;1.50;;
11582;SDS011;34299;50.820;4.548;2022-07-06T02:38:29;2.03;;;1.70;;
11582;SDS011;34299;50.820;4.548;2022-07-06T02:40:56;2.23;;;1.87;;
11582;SDS011;34299;50.820;4.548;2022-07-06T02:43:23;4.60;;;1.97;;
11582;SDS011;34299;50.820;4.548;2022-07-06T02:45:50;2.03;;;1.40;;
11582;SDS011;34299;50.820;4.548;2022-07-06T02:48:18;2.30;;;1.90;;
11582;SDS011;34299;50.820;4.548;2022-07-06T02:50:46;1.50;;;1.40;;
11582;SDS011;34299;50.820;4.548;2022-07-06T02:53:13;1.67;;;1.47;;
11582;SDS011;34299;50.820;4.548;2022-07-06T02:55:40;2.07;;;1.87;;
11582;SDS011;34299;50.820;4.548;2022-07-06T02:58:08;1.80;;;1.70;;
11582;SDS011;34299;50.820;4.548;2022-07-06T03:00:35;2.13;;;1.90;;
11582;SDS011;34299;50.820;4.548;2022-07-06T03:03:02;2.27;;;2.00;;
11582;SDS011;34299;50.820;4.548;2022-07-06T03:05:31;2.93;;;2.67;;
11582;SDS011;34299;50.820;4.548;2022-07-06T03:07:58;2.60;;;1.83;;
11582;SDS011;34299;50.820;4.548;2022-07-06T03:10:25;5.03;;;2.43;;
11582;SDS011;34299;50.820;4.548;2022-07-06T03:12:52;1.97;;;1.77;;
11582;SDS011;34299;50.820;4.548;2022-07-06T03:15:19;2.77;;;2.23;;
11582;SDS011;34299;50.820;4.548;2022-07-06T03:17:47;3.53;;;2.17;;
11582;SDS011;34299;50.820;4.548;2022-07-06T03:20:14;4.67;;;2.40;;
11582;SDS011;34299;50.820;4.548;2022-07-06T03:22:42;4.63;;;2.20;;
11582;SDS011;34299;50.820;4.548;2022-07-06T03:25:10;2.67;;;2.33;;
11582;SDS011;34299;50.820;4.548;2022-07-06T03:27:37;3.97;;;2.40;;
11582;SDS011;34299;50.820;4.548;2022-07-06T03:30:04;3.57;;;2.50;;
11582;SDS011;34299;50.820;4.548;2022-07-06T03:32:31;3.43;;;2.33;;
11582;SDS011;34299;50.820;4.548;2022-07-06T03:34:59;3.77;;;2.23;;
11582;SDS011;34299;50.820;4.548;2022-07-06T03:37:26;3.57;;;2.07;;
11582;SDS011;34299;50.820;4.548;2022-07-06T03:39:54;5.77;;;2.63;;
11582;SDS011;34299;50.820;4.548;2022-07-06T03:42:21;3.97;;;2.30;;
11582;SDS011;34299;50.820;4.548;2022-07-06T03:44:49;3.20;;;2.00;;
11582;SDS011;34299;50.820;4.548;2022-07-06T03:47:16;2.43;;;1.90;;
11582;SDS011;34299;50.820;4.548;2022-07-06T03:49:43;3.57;;;1.97;;
11582;SDS011;34299;50.820;4.548;2022-07-06T03:52:10;2.40;;;2.20;;
11582;SDS011;34299;50.820;4.548;2022-07-06T03:54:37;4.40;;;2.53;;
11582;SDS011;34299;50.820;4.548;2022-07-06T03:57:06;2.60;;;2.13;;
11582;SDS011;34299;50.820;4.548;2022-07-06T03:59:33;3.20;;;1.83;;
11582;SDS011;34299;50.820;4.548;2022-07-06T04:02:00;2.90;;;2.30;;
11582;SDS011;34299;50.820;4.548;2022-07-06T04:04:27;2.57;;;2.07;;
11582;SDS011;34299;50.820;4.548;2022-07-06T04:06:54;3.40;;;1.80;;
11582;SDS011;34299;50.820;4.548;2022-07-06T04:09:22;3.17;;;2.00;;
11582;SDS011;34299;50.820;4.548;2022-07-06T04:11:49;2.33;;;2.13;;
11582;SDS011;34299;50.820;4.548;2022-07-06T04:14:18;4.93;;;2.70;;
11582;SDS011;34299;50.820;4.548;2022-07-06T04:16:45;2.63;;;2.00;;
11582;SDS011;34299;50.820;4.548;2022-07-06T04:19:12;5.13;;;3.13;;
11582;SDS011;34299;50.820;4.548;2022-07-06T04:21:39;3.30;;;2.40;;
11582;SDS011;34299;50.820;4.548;2022-07-06T04:24:06;3.87;;;2.40;;
11582;SDS011;34299;50.820;4.548;2022-07-06T04:26:34;3.50;;;2.27;;
11582;SDS011;34299;50.820;4.548;2022-07-06T04:29:01;3.73;;;2.60;;
11582;SDS011;34299;50.820;4.548;2022-07-06T04:31:30;6.17;;;2.40;;
11582;SDS011;34299;50.820;4.548;2022-07-06T04:33:57;2.80;;;1.97;;
11582;SDS011;34299;50.820;4.548;2022-07-06T04:36:24;4.67;;;2.27;;
11582;SDS011;34299;50.820;4.548;2022-07-06T04:38:51;3.70;;;2.40;;
11582;SDS011;34299;50.820;4.548;2022-07-06T04:41:18;3.93;;;2.27;;
11582;SDS011;34299;50.820;4.548;2022-07-06T04:43:45;4.07;;;2.10;;
11582;SDS011;34299;50.820;4.548;2022-07-06T04:46:13;4.53;;;2.20;;
11582;SDS011;34299;50.820;4.548;2022-07-06T04:48:41;3.23;;;2.23;;
11582;SDS011;34299;50.820;4.548;2022-07-06T04:51:08;4.70;;;2.37;;
11582;SDS011;34299;50.820;4.548;2022-07-06T04:53:36;2.77;;;2.37;;
11582;SDS011;34299;50.820;4.548;2022-07-06T04:56:03;6.63;;;2.60;;
11582;SDS011;34299;50.820;4.548;2022-07-06T04:58:30;5.03;;;3.00;;
11582;SDS011;34299;50.820;4.548;2022-07-06T05:00:57;5.83;;;2.57;;
11582;SDS011;34299;50.820;4.548;2022-07-06T05:03:25;3.80;;;2.90;;
11582;SDS011;34299;50.820;4.548;2022-07-06T05:05:53;7.87;;;3.10;;
11582;SDS011;34299;50.820;4.548;2022-07-06T05:08:21;3.37;;;2.53;;
11582;SDS011;34299;50.820;4.548;2022-07-06T05:10:48;4.10;;;2.90;;
11582;SDS011;34299;50.820;4.548;2022-07-06T05:13:16;3.37;;;2.57;;
11582;SDS011;34299;50.820;4.548;2022-07-06T05:15:43;3.43;;;2.87;;
11582;SDS011;34299;50.820;4.548;2022-07-06T05:18:11;3.97;;;2.93;;
11582;SDS011;34299;50.820;4.548;2022-07-06T05:20:38;3.27;;;2.77;;
11582;SDS011;34299;50.820;4.548;2022-07-06T05:23:06;2.97;;;2.67;;
11582;SDS011;34299;50.820;4.548;2022-07-06T05:25:33;3.97;;;3.07;;
11582;SDS011;34299;50.820;4.548;2022-07-06T05:28:02;6.10;;;3.00;;
11582;SDS011;34299;50.820;4.548;2022-07-06T05:30:29;3.40;;;2.60;;
11582;SDS011;34299;50.820;4.548;2022-07-06T05:32:56;4.87;;;2.50;;
11582;SDS011;34299;50.820;4.548;2022-07-06T05:35:23;6.87;;;2.80;;
11582;SDS011;34299;50.820;4.548;2022-07-06T05:37:50;2.80;;;2.60;;
11582;SDS011;34299;50.820;4.548;2022-07-06T05:40:19;5.43;;;3.20;;
11582;SDS011;34299;50.820;4.548;2022-07-06T05:42:46;3.77;;;2.87;;
11582;SDS011;34299;50.820;4.548;2022-07-06T05:45:13;6.60;;;2.50;;
11582;SDS011;34299;50.820;4.548;2022-07-06T05:47:40;6.30;;;3.07;;
11582;SDS011;34299;50.820;4.548;2022-07-06T05:50:25;3.40;;;2.83;;
11582;SDS011;34299;50.820;4.548;2022-07-06T05:52:56;7.20;;;3.37;;
11582;SDS011;34299;50.820;4.548;2022-07-06T05:55:25;4.20;;;3.00;;
11582;SDS011;34299;50.820;4.548;2022-07-06T05:57:52;5.20;;;3.23;;
11582;SDS011;34299;50.820;4.548;2022-07-06T06:00:21;6.30;;;3.30;;
11582;SDS011;34299;50.820;4.548;2022-07-06T06:02:48;7.00;;;3.30;;
11582;SDS011;34299;50.820;4.548;2022-07-06T06:05:16;3.50;;;3.20;;
11582;SDS011;34299;50.820;4.548;2022-07-06T06:07:43;4.27;;;3.43;;
11582;SDS011;34299;50.820;4.548;2022-07-06T06:10:12;4.57;;;3.17;;
11582;SDS011;34299;50.820;4.548;2022-07-06T06:12:41;10.17;;;3.43;;
11582;SDS011;34299;50.820;4.548;2022-07-06T06:15:08;3.97;;;3.00;;
11582;SDS011;34299;50.820;4.548;2022-07-06T06:17:36;3.90;;;2.90;;
11582;SDS011;34299;50.820;4.548;2022-07-06T06:20:04;4.67;;;3.00;;
11582;SDS011;34299;50.820;4.548;2022-07-06T06:22:43;5.13;;;2.90;;
11582;SDS011;34299;50.820;4.548;2022-07-06T06:25:10;5.03;;;2.50;;
11582;SDS011;34299;50.820;4.548;2022-07-06T06:27:37;2.67;;;2.47;;
11582;SDS011;34299;50.820;4.548;2022-07-06T06:30:07;3.80;;;2.60;;
11582;SDS011;34299;50.820;4.548;2022-07-06T06:32:34;3.60;;;2.80;;
11582;SDS011;34299;50.820;4.548;2022-07-06T06:35:01;4.50;;;2.30;;
11582;SDS011;34299;50.820;4.548;2022-07-06T06:37:29;2.60;;;2.13;;
11582;SDS011;34299;50.820;4.548;2022-07-06T06:39:56;3.30;;;1.90;;
11582;SDS011;34299;50.820;4.548;2022-07-06T06:42:23;5.50;;;2.23;;
11582;SDS011;34299;50.820;4.548;2022-07-06T06:44:50;3.27;;;2.13;;
11582;SDS011;34299;50.820;4.548;2022-07-06T06:47:19;7.63;;;2.30;;
11582;SDS011;34299;50.820;4.548;2022-07-06T06:49:46;3.90;;;2.33;;
11582;SDS011;34299;50.820;4.548;2022-07-06T06:52:13;4.30;;;2.17;;
11582;SDS011;34299;50.820;4.548;2022-07-06T06:54:41;3.33;;;2.20;;
11582;SDS011;34299;50.820;4.548;2022-07-06T06:57:08;3.70;;;2.10;;
11582;SDS011;34299;50.820;4.548;2022-07-06T06:59:35;3.80;;;1.87;;
11582;SDS011;34299;50.820;4.548;2022-07-06T07:02:03;6.03;;;2.13;;
11582;SDS011;34299;50.820;4.548;2022-07-06T07:04:31;4.23;;;1.70;;
11582;SDS011;34299;50.820;4.548;2022-07-06T07:06:59;3.67;;;2.13;;
11582;SDS011;34299;50.820;4.548;2022-07-06T07:09:26;4.33;;;2.27;;
11582;SDS011;34299;50.820;4.548;2022-07-06T07:11:53;5.80;;;1.60;;
11582;SDS011;34299;50.820;4.548;2022-07-06T07:14:20;4.77;;;2.43;;
11582;SDS011;34299;50.820;4.548;2022-07-06T07:16:48;4.57;;;1.83;;
11582;SDS011;34299;50.820;4.548;2022-07-06T07:19:15;2.97;;;2.07;;
11582;SDS011;34299;50.820;4.548;2022-07-06T07:21:43;3.43;;;1.90;;
11582;SDS011;34299;50.820;4.548;2022-07-06T07:24:10;6.43;;;2.20;;
11582;SDS011;34299;50.820;4.548;2022-07-06T07:26:38;3.53;;;1.93;;
11582;SDS011;34299;50.820;4.548;2022-07-06T07:29:05;3.90;;;2.00;;
11582;SDS011;34299;50.820;4.548;2022-07-06T07:31:32;5.87;;;1.80;;
11582;SDS011;34299;50.820;4.548;2022-07-06T07:33:59;4.07;;;2.00;;
11582;SDS011;34299;50.820;4.548;2022-07-06T07:36:26;4.03;;;1.63;;
11582;SDS011;34299;50.820;4.548;2022-07-06T07:38:55;5.50;;;1.67;;
11582;SDS011;34299;50.820;4.548;2022-07-06T07:41:22;5.53;;;2.10;;
11582;SDS011;34299;50.820;4.548;2022-07-06T07:43:49;2.47;;;2.00;;
11582;SDS011;34299;50.820;4.548;2022-07-06T07:46:16;6.07;;;2.63;;
11582;SDS011;34299;50.820;4.548;2022-07-06T07:48:44;4.23;;;2.10;;
11582;SDS011;34299;50.820;4.548;2022-07-06T07:51:11;4.63;;;1.73;;
11582;SDS011;34299;50.820;4.548;2022-07-06T07:53:38;1.17;;;1.03;;
11582;SDS011;34299;50.820;4.548;2022-07-06T07:56:07;3.60;;;1.30;;
11582;SDS011;34299;50.820;4.548;2022-07-06T07:58:34;4.10;;;1.37;;
11582;SDS011;34299;50.820;4.548;2022-07-06T08:01:01;1.80;;;1.30;;
11582;SDS011;34299;50.820;4.548;2022-07-06T08:03:29;3.40;;;1.30;;
11582;SDS011;34299;50.820;4.548;2022-07-06T08:05:56;3.43;;;1.70;;
11582;SDS011;34299;50.820;4.548;2022-07-06T08:08:23;3.60;;;1.93;;
11582;SDS011;34299;50.820;4.548;2022-07-06T08:10:50;3.97;;;2.37;;
11582;SDS011;34299;50.820;4.548;2022-07-06T08:13:19;4.23;;;2.13;;
11582;SDS011;34299;50.820;4.548;2022-07-06T08:15:47;4.93;;;2.50;;
11582;SDS011;34299;50.820;4.548;2022-07-06T08:18:15;4.13;;;2.33;;
11582;SDS011;34299;50.820;4.548;2022-07-06T08:20:42;6.00;;;2.30;;
11582;SDS011;34299;50.820;4.548;2022-07-06T08:23:09;4.67;;;2.10;;
11582;SDS011;34299;50.820;4.548;2022-07-06T08:25:36;4.13;;;2.33;;
11582;SDS011;34299;50.820;4.548;2022-07-06T08:28:04;4.23;;;2.67;;
11582;SDS011;34299;50.820;4.548;2022-07-06T08:30:32;6.03;;;2.30;;
11582;SDS011;34299;50.820;4.548;2022-07-06T08:33:00;5.63;;;2.47;;
11582;SDS011;34299;50.820;4.548;2022-07-06T08:35:27;6.13;;;2.77;;
11582;SDS011;34299;50.820;4.548;2022-07-06T08:37:54;5.30;;;2.43;;
11582;SDS011;34299;50.820;4.548;2022-07-06T08:40:22;4.60;;;2.70;;
11582;SDS011;34299;50.820;4.548;2022-07-06T08:42:49;2.53;;;2.33;;
11582;SDS011;34299;50.820;4.548;2022-07-06T08:45:19;6.90;;;2.53;;
11582;SDS011;34299;50.820;4.548;2022-07-06T08:47:48;4.80;;;2.80;;
11582;SDS011;34299;50.820;4.548;2022-07-06T08:50:16;5.37;;;2.33;;
11582;SDS011;34299;50.820;4.548;2022-07-06T08:52:43;3.67;;;2.20;;
11582;SDS011;34299;50.820;4.548;2022-07-06T08:55:10;7.50;;;2.97;;
11582;SDS011;34299;50.820;4.548;2022-07-06T08:57:38;4.63;;;2.50;;
11582;SDS011;34299;50.820;4.548;2022-07-06T09:00:06;5.30;;;2.50;;
11582;SDS011;34299;50.820;4.548;2022-07-06T09:02:33;7.07;;;2.80;;
11582;SDS011;34299;50.820;4.548;2022-07-06T09:05:03;4.53;;;2.30;;
11582;SDS011;34299;50.820;4.548;2022-07-06T09:07:30;4.00;;;2.00;;
11582;SDS011;34299;50.820;4.548;2022-07-06T09:09:58;2.73;;;2.00;;
11582;SDS011;34299;50.820;4.548;2022-07-06T09:12:26;6.00;;;2.00;;
11582;SDS011;34299;50.820;4.548;2022-07-06T09:14:54;4.87;;;2.40;;
11582;SDS011;34299;50.820;4.548;2022-07-06T09:17:23;4.07;;;2.77;;
11582;SDS011;34299;50.820;4.548;2022-07-06T09:19:51;4.07;;;2.57;;
11582;SDS011;34299;50.820;4.548;2022-07-06T09:22:27;2.13;;;1.93;;
11582;SDS011;34299;50.820;4.548;2022-07-06T09:25:00;4.47;;;2.17;;
11582;SDS011;34299;50.820;4.548;2022-07-06T09:27:27;3.53;;;2.37;;
11582;SDS011;34299;50.820;4.548;2022-07-06T09:29:55;2.57;;;1.97;;
11582;SDS011;34299;50.820;4.548;2022-07-06T09:32:26;3.70;;;2.20;;
11582;SDS011;34299;50.820;4.548;2022-07-06T09:34:53;4.37;;;2.50;;
11582;SDS011;34299;50.820;4.548;2022-07-06T09:37:21;5.10;;;2.57;;
11582;SDS011;34299;50.820;4.548;2022-07-06T09:39:50;3.33;;;2.30;;
11582;SDS011;34299;50.820;4.548;2022-07-06T09:42:18;4.67;;;2.67;;
11582;SDS011;34299;50.820;4.548;2022-07-06T09:44:51;7.30;;;2.83;;
11582;SDS011;34299;50.820;4.548;2022-07-06T09:47:18;3.53;;;2.20;;
11582;SDS011;34299;50.820;4.548;2022-07-06T09:49:45;4.47;;;2.30;;
11582;SDS011;34299;50.820;4.548;2022-07-06T09:52:13;3.87;;;2.37;;
11582;SDS011;34299;50.820;4.548;2022-07-06T09:54:41;3.77;;;1.90;;
11582;SDS011;34299;50.820;4.548;2022-07-06T09:57:09;5.73;;;2.20;;
11582;SDS011;34299;50.820;4.548;2022-07-06T09:59:37;4.17;;;2.10;;
11582;SDS011;34299;50.820;4.548;2022-07-06T10:02:05;5.57;;;2.43;;
11582;SDS011;34299;50.820;4.548;2022-07-06T10:04:33;6.37;;;2.70;;
11582;SDS011;34299;50.820;4.548;2022-07-06T10:07:00;5.17;;;2.20;;
11582;SDS011;34299;50.820;4.548;2022-07-06T10:09:28;5.67;;;2.00;;
11582;SDS011;34299;50.820;4.548;2022-07-06T10:11:56;3.07;;;1.87;;
11582;SDS011;34299;50.820;4.548;2022-07-06T10:14:26;4.67;;;1.97;;
11582;SDS011;34299;50.820;4.548;2022-07-06T10:16:54;4.27;;;2.20;;
11582;SDS011;34299;50.820;4.548;2022-07-06T10:19:21;3.10;;;2.00;;
11582;SDS011;34299;50.820;4.548;2022-07-06T10:21:49;3.70;;;2.30;;
11582;SDS011;34299;50.820;4.548;2022-07-06T10:24:17;2.50;;;1.70;;
11582;SDS011;34299;50.820;4.548;2022-07-06T10:26:45;5.47;;;1.97;;
11582;SDS011;34299;50.820;4.548;2022-07-06T10:29:13;3.40;;;1.80;;
11582;SDS011;34299;50.820;4.548;2022-07-06T10:31:43;2.77;;;1.90;;
11582;SDS011;34299;50.820;4.548;2022-07-06T10:34:11;5.17;;;2.10;;
11582;SDS011;34299;50.820;4.548;2022-07-06T10:36:39;3.37;;;1.73;;
11582;SDS011;34299;50.820;4.548;2022-07-06T10:39:07;5.20;;;1.90;;
11582;SDS011;34299;50.820;4.548;2022-07-06T10:41:52;2.23;;;1.73;;
11582;SDS011;34299;50.820;4.548;2022-07-06T10:44:20;2.60;;;1.53;;
11582;SDS011;34299;50.820;4.548;2022-07-06T10:46:53;3.37;;;2.23;;
11582;SDS011;34299;50.820;4.548;2022-07-06T10:49:20;4.00;;;2.03;;
11582;SDS011;34299;50.820;4.548;2022-07-06T10:51:48;5.00;;;2.10;;
11582;SDS011;34299;50.820;4.548;2022-07-06T10:54:16;6.00;;;2.50;;
11582;SDS011;34299;50.820;4.548;2022-07-06T10:56:44;3.73;;;1.97;;
11582;SDS011;34299;50.820;4.548;2022-07-06T10:59:12;3.83;;;1.77;;
11582;SDS011;34299;50.820;4.548;2022-07-06T11:01:39;4.83;;;1.70;;
11582;SDS011;34299;50.820;4.548;2022-07-06T11:04:09;4.13;;;1.60;;
11582;SDS011;34299;50.820;4.548;2022-07-06T11:06:37;2.70;;;1.60;;
11582;SDS011;34299;50.820;4.548;2022-07-06T11:09:05;1.40;;;1.30;;
11582;SDS011;34299;50.820;4.548;2022-07-06T11:11:42;3.00;;;1.40;;
11582;SDS011;34299;50.820;4.548;2022-07-06T11:14:14;2.53;;;1.60;;
11582;SDS011;34299;50.820;4.548;2022-07-06T11:19:27;6.20;;;2.00;;
11582;SDS011;34299;50.820;4.548;2022-07-06T11:21:54;2.13;;;1.60;;
11582;SDS011;34299;50.820;4.548;2022-07-06T11:24:23;4.07;;;1.50;;
11582;SDS011;34299;50.820;4.548;2022-07-06T11:26:51;2.93;;;1.80;;
11582;SDS011;34299;50.820;4.548;2022-07-06T11:29:19;4.30;;;2.00;;
11582;SDS011;34299;50.820;4.548;2022-07-06T11:31:47;4.30;;;1.87;;
11582;SDS011;34299;50.820;4.548;2022-07-06T11:34:17;3.83;;;2.00;;
11582;SDS011;34299;50.820;4.548;2022-07-06T11:36:46;3.83;;;2.10;;
11582;SDS011;34299;50.820;4.548;2022-07-06T11:39:14;3.00;;;1.80;;
11582;SDS011;34299;50.820;4.548;2022-07-06T11:41:41;5.03;;;2.37;;
11582;SDS011;34299;50.820;4.548;2022-07-06T11:44:08;6.60;;;1.70;;
11582;SDS011;34299;50.820;4.548;2022-07-06T11:46:36;5.13;;;1.90;;
11582;SDS011;34299;50.820;4.548;2022-07-06T11:49:04;3.87;;;1.87;;
11582;SDS011;34299;50.820;4.548;2022-07-06T11:51:32;2.63;;;1.63;;
11582;SDS011;34299;50.820;4.548;2022-07-06T11:54:03;2.27;;;1.50;;
11582;SDS011;34299;50.820;4.548;2022-07-06T11:56:34;3.27;;;1.70;;
11582;SDS011;34299;50.820;4.548;2022-07-06T11:59:01;3.33;;;1.50;;
11582;SDS011;34299;50.820;4.548;2022-07-06T12:01:29;2.83;;;1.97;;
11582;SDS011;34299;50.820;4.548;2022-07-06T12:03:57;2.07;;;1.83;;
11582;SDS011;34299;50.820;4.548;2022-07-06T12:06:25;2.90;;;1.90;;
11582;SDS011;34299;50.820;4.548;2022-07-06T12:08:53;2.70;;;1.80;;
11582;SDS011;34299;50.820;4.548;2022-07-06T12:11:23;4.13;;;1.93;;
11582;SDS011;34299;50.820;4.548;2022-07-06T12:13:50;2.33;;;1.67;;
11582;SDS011;34299;50.820;4.548;2022-07-06T12:16:18;3.07;;;1.90;;
11582;SDS011;34299;50.820;4.548;2022-07-06T12:18:48;4.30;;;2.00;;
11582;SDS011;34299;50.820;4.548;2022-07-06T12:21:16;5.13;;;1.80;;
11582;SDS011;34299;50.820;4.548;2022-07-06T12:23:44;4.87;;;1.90;;
11582;SDS011;34299;50.820;4.548;2022-07-06T12:26:12;2.03;;;1.80;;
11582;SDS011;34299;50.820;4.548;2022-07-06T12:28:41;4.20;;;2.10;;
11582;SDS011;34299;50.820;4.548;2022-07-06T12:31:08;6.07;;;1.67;;
11582;SDS011;34299;50.820;4.548;2022-07-06T12:33:35;3.03;;;2.10;;
11582;SDS011;34299;50.820;4.548;2022-07-06T12:36:12;4.33;;;1.80;;
11582;SDS011;34299;50.820;4.548;2022-07-06T12:38:46;5.43;;;2.17;;
11582;SDS011;34299;50.820;4.548;2022-07-06T12:41:26;3.83;;;2.03;;
11582;SDS011;34299;50.820;4.548;2022-07-06T12:44:05;2.07;;;1.60;;
11582;SDS011;34299;50.820;4.548;2022-07-06T12:46:33;2.27;;;1.60;;
11582;SDS011;34299;50.820;4.548;2022-07-06T12:49:02;1.50;;;1.40;;
11582;SDS011;34299;50.820;4.548;2022-07-06T12:54:12;3.70;;;1.57;;
11582;SDS011;34299;50.820;4.548;2022-07-06T12:56:55;5.37;;;1.57;;
11582;SDS011;34299;50.820;4.548;2022-07-06T12:59:24;4.47;;;1.63;;
11582;SDS011;34299;50.820;4.548;2022-07-06T13:01:51;4.00;;;1.50;;
11582;SDS011;34299;50.820;4.548;2022-07-06T13:04:22;1.53;;;1.40;;
11582;SDS011;34299;50.820;4.548;2022-07-06T13:06:49;2.73;;;1.67;;
11582;SDS011;34299;50.820;4.548;2022-07-06T13:09:16;4.07;;;1.67;;
11582;SDS011;34299;50.820;4.548;2022-07-06T13:11:44;3.93;;;1.70;;
11582;SDS011;34299;50.820;4.548;2022-07-06T13:14:11;2.00;;;1.50;;
11582;SDS011;34299;50.820;4.548;2022-07-06T13:16:40;3.07;;;1.47;;
11582;SDS011;34299;50.820;4.548;2022-07-06T13:19:07;1.37;;;1.27;;
11582;SDS011;34299;50.820;4.548;2022-07-06T13:21:35;2.43;;;1.50;;
11582;SDS011;34299;50.820;4.548;2022-07-06T13:24:02;5.77;;;1.70;;
11582;SDS011;34299;50.820;4.548;2022-07-06T13:26:30;2.80;;;1.40;;
11582;SDS011;34299;50.820;4.548;2022-07-06T13:28:58;1.97;;;1.40;;
11582;SDS011;34299;50.820;4.548;2022-07-06T13:31:26;6.00;;;1.60;;
11582;SDS011;34299;50.820;4.548;2022-07-06T13:33:54;3.20;;;1.43;;
11582;SDS011;34299;50.820;4.548;2022-07-06T13:36:22;3.80;;;1.73;;
11582;SDS011;34299;50.820;4.548;2022-07-06T13:38:49;2.73;;;1.70;;
11582;SDS011;34299;50.820;4.548;2022-07-06T13:41:17;2.90;;;1.60;;
11582;SDS011;34299;50.820;4.548;2022-07-06T13:43:44;2.27;;;1.60;;
11582;SDS011;34299;50.820;4.548;2022-07-06T13:46:11;2.30;;;1.70;;
11582;SDS011;34299;50.820;4.548;2022-07-06T13:48:39;3.27;;;1.50;;
11582;SDS011;34299;50.820;4.548;2022-07-06T13:51:07;2.93;;;1.70;;
11582;SDS011;34299;50.820;4.548;2022-07-06T13:53:35;1.93;;;1.43;;
11582;SDS011;34299;50.820;4.548;2022-07-06T13:56:02;2.77;;;1.30;;
11582;SDS011;34299;50.820;4.548;2022-07-06T13:58:29;4.23;;;1.40;;
11582;SDS011;34299;50.820;4.548;2022-07-06T14:00:56;2.27;;;1.27;;
11582;SDS011;34299;50.820;4.548;2022-07-06T14:03:23;4.27;;;1.53;;
11582;SDS011;34299;50.820;4.548;2022-07-06T14:05:54;3.37;;;1.90;;
11582;SDS011;34299;50.820;4.548;2022-07-06T14:08:23;5.40;;;1.47;;
11582;SDS011;34299;50.820;4.548;2022-07-06T14:10:50;3.83;;;2.00;;
11582;SDS011;34299;50.820;4.548;2022-07-06T14:13:18;3.93;;;1.97;;
11582;SDS011;34299;50.820;4.548;2022-07-06T14:15:45;2.40;;;1.97;;
11582;SDS011;34299;50.820;4.548;2022-07-06T14:18:12;2.53;;;1.70;;
11582;SDS011;34299;50.820;4.548;2022-07-06T14:20:39;3.70;;;1.70;;
11582;SDS011;34299;50.820;4.548;2022-07-06T14:23:07;2.80;;;1.50;;
11582;SDS011;34299;50.820;4.548;2022-07-06T14:25:36;3.40;;;1.63;;
11582;SDS011;34299;50.820;4.548;2022-07-06T14:28:03;4.43;;;1.70;;
11582;SDS011;34299;50.820;4.548;2022-07-06T14:30:31;2.00;;;1.53;;
11582;SDS011;34299;50.820;4.548;2022-07-06T14:32:58;3.27;;;1.37;;
11582;SDS011;34299;50.820;4.548;2022-07-06T14:35:26;3.50;;;1.50;;
11582;SDS011;34299;50.820;4.548;2022-07-06T14:37:54;3.00;;;1.77;;
11582;SDS011;34299;50.820;4.548;2022-07-06T14:40:21;4.00;;;1.67;;
11582;SDS011;34299;50.820;4.548;2022-07-06T14:42:49;3.37;;;1.77;;
11582;SDS011;34299;50.820;4.548;2022-07-06T14:45:16;7.37;;;1.87;;
11582;SDS011;34299;50.820;4.548;2022-07-06T14:47:44;3.80;;;1.80;;
11582;SDS011;34299;50.820;4.548;2022-07-06T14:50:11;2.53;;;1.67;;
11582;SDS011;34299;50.820;4.548;2022-07-06T14:52:38;2.77;;;1.40;;
11582;SDS011;34299;50.820;4.548;2022-07-06T14:55:06;4.10;;;1.70;;
11582;SDS011;34299;50.820;4.548;2022-07-06T14:57:33;2.53;;;1.30;;